Airfield :
LOGIN :

Register | Disclaimer

   EN    FR    IT 

 










Legend :    VFR   Marginal VFR   IFR   Intensive IFR   Very Intensive IFR
Visi :
Ceiling :
>= 8 km
>= 3000ft
5 to 8 km
1000 to 3000 ft
1500m to 5 km
500 to 1000 ft
800 to 1500m
200 to 500 ft
< 800m
< 200 ft
Symbols :   Thunderstorms  Fog  Heavy snow  Heavy precipitations  Wind > 20 kt
SIGMETs :     Misc.  Thunderstorms  Icing  Turbulence  Mountain Waves  Volcanic Ashes







- Airport Elevation : 1299 ft


EDTY - Adolf Würth

CURRENT METAR :
  • 191420Z 26004KT 220V330 CAVOK 28/10 Q1017

EXPIRED METARs :
  • 191350Z 01004KT 280V090 CAVOK 28/09 Q1017
  • 191320Z 34005KT 290V050 CAVOK 27/09 Q1017
  • 191250Z VRB02KT CAVOK 27/09 Q1017
  • 191220Z 28004KT 240V330 CAVOK 27/09 Q1017
  • 191150Z VRB03KT CAVOK 27/10 Q1018

TAF TAF EDTY
Valid from the 19 at 15:00 until the 20 at 00:00 UTC


191400Z 1915/1924 VRB03KT CAVOK
No reported NOTAMs for that airfield.



MET'MAP, your aeronautical weather chart ! - Copyright ORBIFLY December 2007 - Disclaimer

ORBIFLY MET'MAP TEAM :

Programming & Development : Alexandra Zaïnal
Concept & Development : Baudouin d'Aumeries
Co-Development & Prog : Marc-Olivier Méhu
Technical & hardware support : Manuel Goepfert

Contact : metmap@orbifly.com




SOURCES & CREDITS :

   NOAA